Time;durP1;ratioP1;P1;durP2;ratioP2;P2;SDS_P1;SDS_P2;PMS_P1;PMS_P2;Temp;Humidity;BMP_temperature;BMP_pressure;BME280_temperature;BME280_humidity;BME280_pressure;Samples;Min_cycle;Max_cycle;Signal;HPM_P1;HPM_P2
2023/09/14 00:00:20;;;;;;;13.20;11.05;;;;;;;20.84;73.54;100018.78;5010444;28;20716;-62
2023/09/14 00:02:48;;;;;;;12.90;11.57;;;;;;;20.85;73.48;100023.06;5006864;28;20693;-60
2023/09/14 00:05:17;;;;;;;13.65;11.25;;;;;;;20.85;73.51;100009.13;5010336;28;20211;-60
2023/09/14 00:07:46;;;;;;;12.48;11.27;;;;;;;20.83;73.39;100018.84;5006808;28;20207;-60
2023/09/14 00:10:14;;;;;;;12.57;11.30;;;;;;;20.82;73.62;100011.91;5006301;28;20515;-60
2023/09/14 00:12:43;;;;;;;12.40;11.20;;;;;;;20.79;73.65;100018.16;5008397;28;20253;-61
2023/09/14 00:15:11;;;;;;;13.95;11.45;;;;;;;20.77;73.91;100020.03;5010161;28;20564;-59
2023/09/14 00:17:39;;;;;;;17.38;12.73;;;;;;;20.77;73.59;100006.94;5006584;28;20211;-60
2023/09/14 00:20:10;;;;;;;13.18;11.88;;;;;;;20.74;74.08;100021.03;5009190;28;20207;-60
2023/09/14 00:22:38;;;;;;;13.40;11.77;;;;;;;20.71;73.92;100018.56;5009444;28;20658;-60
2023/09/14 00:25:08;;;;;;;13.95;12.50;;;;;;;20.67;74.35;100018.84;5001658;28;20300;-59
2023/09/14 00:27:36;;;;;;;13.80;12.07;;;;;;;20.65;74.48;100020.66;5009438;28;20203;-60
2023/09/14 00:30:05;;;;;;;18.05;12.45;;;;;;;20.55;74.41;100020.34;5009070;28;20222;-60
2023/09/14 00:32:38;;;;;;;14.68;12.82;;;;;;;20.52;74.89;100015.25;5007653;28;20210;-59
2023/09/14 00:35:07;;;;;;;16.83;12.65;;;;;;;20.51;75.05;100018.81;5004923;28;20208;-61
2023/09/14 00:37:36;;;;;;;13.38;11.93;;;;;;;20.47;75.19;100017.22;5009796;28;20658;-62
2023/09/14 00:40:06;;;;;;;13.38;11.95;;;;;;;20.46;75.29;100015.53;5010135;28;20611;-60
2023/09/14 00:42:39;;;;;;;12.90;11.38;;;;;;;20.46;75.32;100023.41;5002644;28;20294;-59
2023/09/14 00:45:08;;;;;;;13.27;11.98;;;;;;;20.48;75.23;100024.19;5007830;28;20622;-59
2023/09/14 00:47:39;;;;;;;16.23;11.85;;;;;;;20.55;75.06;100024.75;5008848;28;20562;-62
2023/09/14 00:50:08;;;;;;;14.93;12.43;;;;;;;20.59;75.00;100032.34;5009177;28;20200;-61
2023/09/14 00:52:38;;;;;;;14.82;11.98;;;;;;;20.63;74.74;100031.25;5010358;28;20207;-60
2023/09/14 00:55:08;;;;;;;13.52;11.85;;;;;;;20.62;74.68;100032.19;5007900;28;20234;-59
2023/09/14 00:57:39;;;;;;;16.73;11.10;;;;;;;20.62;74.35;100037.41;5003412;28;20600;-58
2023/09/14 01:00:10;;;;;;;14.90;12.07;;;;;;;20.59;74.34;100032.34;5009784;28;20618;-60
2023/09/14 01:02:40;;;;;;;16.73;11.60;;;;;;;20.56;74.39;100037.72;5008494;28;20708;-59
2023/09/14 01:05:09;;;;;;;15.40;11.38;;;;;;;20.54;74.72;100039.56;5006802;28;20214;-58
2023/09/14 01:07:37;;;;;;;12.30;10.93;;;;;;;20.48;74.71;100037.25;5012937;28;20207;-60
2023/09/14 01:10:06;;;;;;;13.57;10.40;;;;;;;20.42;75.08;100040.19;5011725;28;20204;-60
2023/09/14 01:12:34;;;;;;;12.13;10.88;;;;;;;20.38;75.34;100043.91;5008391;28;20302;-59
2023/09/14 01:15:15;;;;;;;13.23;11.82;;;;;;;20.40;75.42;100050.75;5011532;28;20646;-60
2023/09/14 01:17:53;;;;;;;13.07;10.85;;;;;;;20.39;75.24;100053.44;5011199;28;20230;-58
2023/09/14 01:20:38;;;;;;;11.57;10.38;;;;;;;20.36;75.22;100050.97;5006685;28;20261;-60
2023/09/14 01:23:22;;;;;;;13.15;10.82;;;;;;;20.31;75.47;100047.75;5012586;28;20740;-59
2023/09/14 01:25:53;;;;;;;12.65;11.35;;;;;;;20.31;75.42;100047.75;5009742;28;20282;-59
2023/09/14 01:28:21;;;;;;;11.77;10.52;;;;;;;20.30;75.23;100046.06;5008932;28;20612;-61
2023/09/14 01:30:49;;;;;;;11.43;10.23;;;;;;;20.26;75.61;100059.31;5012958;28;20295;-61
2023/09/14 01:33:20;;;;;;;12.55;11.23;;;;;;;20.26;75.51;100051.47;5010959;28;20724;-60
2023/09/14 01:36:06;;;;;;;12.23;10.82;;;;;;;20.19;75.57;100052.69;5013458;28;20207;-59
2023/09/14 01:38:36;;;;;;;12.35;10.30;;;;;;;20.19;75.82;100057.94;5010315;28;20203;-60
2023/09/14 01:41:07;;;;;;;11.15;10.02;;;;;;;20.17;75.93;100054.53;5013506;28;20230;-62
2023/09/14 01:43:35;;;;;;;10.98;9.90;;;;;;;20.13;75.40;100062.63;5016472;28;20223;-61
2023/09/14 01:46:05;;;;;;;11.75;10.13;;;;;;;20.08;76.09;100068.09;5006423;28;20207;-59
2023/09/14 01:48:33;;;;;;;11.73;10.55;;;;;;;20.10;75.95;100074.06;5011168;28;20664;-60
2023/09/14 01:51:01;;;;;;;10.75;9.65;;;;;;;20.14;76.13;100074.78;5009271;28;20200;-58
2023/09/14 01:53:29;;;;;;;13.55;10.32;;;;;;;20.12;75.71;100069.63;5011937;28;20215;-60
2023/09/14 01:55:57;;;;;;;11.27;10.07;;;;;;;20.06;75.37;100071.69;5010664;28;20206;-59
2023/09/14 01:58:26;;;;;;;13.00;9.93;;;;;;;20.06;76.29;100075.16;5012847;28;20297;-59
2023/09/14 02:00:54;;;;;;;11.00;9.90;;;;;;;20.06;75.94;100075.16;5011423;28;20617;-58
2023/09/14 02:03:22;;;;;;;11.80;9.80;;;;;;;20.06;76.09;100071.69;5010221;28;20199;-58
2023/09/14 02:05:57;;;;;;;11.52;9.30;;;;;;;20.06;75.83;100080.41;5012637;28;20220;-59
2023/09/14 02:08:26;;;;;;;11.75;9.90;;;;;;;20.05;75.64;100073.47;5011799;28;20199;-59
2023/09/14 02:10:54;;;;;;;11.07;9.98;;;;;;;20.05;76.02;100080.47;5013484;28;20218;-58
2023/09/14 02:13:22;;;;;;;11.02;9.75;;;;;;;20.03;75.84;100077.97;5007394;28;20290;-56
2023/09/14 02:15:52;;;;;;;11.50;10.02;;;;;;;20.01;75.81;100083.25;5008831;28;20200;-57
2023/09/14 02:18:20;;;;;;;12.20;10.23;;;;;;;19.99;75.85;100084.22;5010204;28;20305;-60
2023/09/14 02:20:48;;;;;;;10.60;9.50;;;;;;;20.01;75.82;100088.47;5012585;28;20330;-58
2023/09/14 02:23:17;;;;;;;13.35;9.40;;;;;;;20.06;75.74;100090.00;5011610;28;20211;-62
2023/09/14 02:25:45;;;;;;;10.48;9.38;;;;;;;20.06;75.29;100090.00;5011881;28;20282;-60
2023/09/14 02:28:15;;;;;;;10.38;8.98;;;;;;;20.06;75.43;100092.63;5011702;28;20315;-60
2023/09/14 02:30:43;;;;;;;11.52;9.13;;;;;;;20.05;75.50;100098.78;5003861;28;20235;-59
2023/09/14 02:33:12;;;;;;;9.68;8.68;;;;;;;20.01;75.10;100093.72;5010995;28;20657;-60
2023/09/14 02:35:41;;;;;;;9.50;8.60;;;;;;;19.98;75.69;100098.25;5012076;28;20599;-61
2023/09/14 02:38:09;;;;;;;12.23;9.68;;;;;;;19.96;75.35;100100.94;5012133;28;20212;-59
2023/09/14 02:40:37;;;;;;;9.43;7.95;;;;;;;19.93;75.61;100100.25;5010964;28;20261;-58
2023/09/14 02:43:05;;;;;;;9.82;8.45;;;;;;;19.95;75.41;100099.22;5005864;28;20668;-59
2023/09/14 02:45:33;;;;;;;11.10;8.63;;;;;;;19.95;75.11;100103.63;5012567;28;20219;-59
2023/09/14 02:48:01;;;;;;;10.63;8.88;;;;;;;19.95;75.42;100108.84;5011386;28;20211;-61
2023/09/14 02:50:31;;;;;;;9.85;8.85;;;;;;;19.96;75.11;100107.94;5010056;28;20217;-58
2023/09/14 02:52:59;;;;;;;9.45;8.55;;;;;;;19.90;75.19;100121.31;5007938;28;20195;-60
2023/09/14 02:55:27;;;;;;;9.05;7.72;;;;;;;19.86;75.43;100125.84;5005469;28;20206;-59
2023/09/14 02:57:55;;;;;;;10.75;8.80;;;;;;;19.82;75.00;100126.94;5008525;28;20716;-60
2023/09/14 03:00:22;;;;;;;9.90;7.82;;;;;;;19.76;75.62;100133.28;5011633;28;20851;-59
2023/09/14 03:02:51;;;;;;;9.15;8.25;;;;;;;19.74;75.65;100137.75;5011786;28;20204;-60
2023/09/14 03:05:20;;;;;;;9.77;8.23;;;;;;;19.71;75.79;100135.28;5011346;28;20310;-60
2023/09/14 03:07:49;;;;;;;10.63;8.13;;;;;;;19.68;75.54;100132.81;5009235;28;20215;-61
2023/09/14 03:10:17;;;;;;;8.68;7.75;;;;;;;19.71;76.10;100137.91;5008853;28;20235;-60
2023/09/14 03:12:45;;;;;;;10.60;8.05;;;;;;;19.75;75.72;100149.06;5011276;28;20207;-60
2023/09/14 03:15:13;;;;;;;12.73;8.02;;;;;;;19.76;75.54;100145.50;5007473;28;20199;-61
2023/09/14 03:17:41;;;;;;;9.20;7.75;;;;;;;19.76;75.59;100140.28;5010082;28;20207;-60
2023/09/14 03:20:10;;;;;;;12.57;7.88;;;;;;;19.74;75.60;100132.53;5007666;28;20234;-60
2023/09/14 03:22:38;;;;;;;9.07;7.53;;;;;;;19.75;75.45;100143.81;5007837;28;20279;-62
2023/09/14 03:25:08;;;;;;;10.77;7.82;;;;;;;19.67;75.59;100144.19;5009251;28;20740;-59
2023/09/14 03:27:36;;;;;;;8.30;7.47;;;;;;;19.66;75.96;100155.59;5008862;28;20674;-60
2023/09/14 03:30:07;;;;;;;8.50;7.60;;;;;;;19.64;75.54;100153.94;5009727;28;20218;-61
2023/09/14 03:32:35;;;;;;;8.80;7.53;;;;;;;19.64;76.11;100161.78;5005701;28;20294;-59
2023/09/14 03:35:03;;;;;;;8.52;7.65;;;;;;;19.64;76.04;100157.41;5010107;28;20207;-59
2023/09/14 03:37:31;;;;;;;11.20;7.45;;;;;;;19.67;76.08;100162.50;5007666;28;20245;-62
2023/09/14 03:39:59;;;;;;;9.63;7.78;;;;;;;19.66;75.35;100168.66;5008624;28;20337;-61
2023/09/14 03:42:30;;;;;;;7.72;7.03;;;;;;;19.63;75.93;100181.00;5009632;28;20582;-59
2023/09/14 03:44:58;;;;;;;8.52;7.65;;;;;;;19.63;76.17;100176.63;5009392;28;20246;-61
2023/09/14 03:47:26;;;;;;;7.55;6.47;;;;;;;19.64;75.81;100183.53;5007915;28;20540;-62
2023/09/14 03:49:54;;;;;;;7.63;6.93;;;;;;;19.64;75.80;100188.78;5003661;28;20214;-60
2023/09/14 03:52:22;;;;;;;8.63;7.38;;;;;;;19.63;75.71;100196.69;5008036;28;20207;-61
2023/09/14 03:54:50;;;;;;;8.25;7.22;;;;;;;19.62;75.71;100195.81;5010034;28;20633;-61
2023/09/14 03:57:18;;;;;;;8.00;6.80;;;;;;;19.62;75.82;100197.56;5014416;28;20210;-61
2023/09/14 03:59:48;;;;;;;7.28;6.45;;;;;;;19.64;75.94;100199.22;5008476;28;20650;-59
2023/09/14 04:02:16;;;;;;;7.15;6.43;;;;;;;19.66;75.92;100197.41;5010654;28;20203;-60
2023/09/14 04:04:45;;;;;;;7.03;6.20;;;;;;;19.66;75.35;100210.47;5009070;28;20231;-63
2023/09/14 04:07:13;;;;;;;10.63;6.30;;;;;;;19.64;75.45;100204.47;5002361;28;20203;-60
2023/09/14 04:09:41;;;;;;;6.72;6.13;;;;;;;19.64;75.73;100214.06;5009355;28;20302;-61
2023/09/14 04:12:10;;;;;;;7.40;5.93;;;;;;;19.60;75.56;100208.09;5007652;28;20207;-62
2023/09/14 04:14:38;;;;;;;5.97;5.38;;;;;;;19.57;75.54;100212.63;5007150;28;20655;-61
2023/09/14 04:17:07;;;;;;;8.55;5.60;;;;;;;19.59;75.79;100211.66;5011063;28;20270;-61
2023/09/14 04:19:35;;;;;;;6.00;5.38;;;;;;;19.63;75.54;100226.28;5008105;28;20207;-61
2023/09/14 04:22:03;;;;;;;9.15;5.72;;;;;;;19.59;75.61;100222.09;5005725;28;20253;-60
2023/09/14 04:24:31;;;;;;;5.47;4.97;;;;;;;19.54;75.63;100224.91;5006759;28;20215;-59
2023/09/14 04:26:59;;;;;;;6.25;5.00;;;;;;;19.51;75.82;100234.66;5009342;28;20199;-58
2023/09/14 04:29:27;;;;;;;6.88;5.47;;;;;;;19.46;76.29;100231.41;5009897;28;20199;-59
2023/09/14 04:31:57;;;;;;;6.03;5.20;;;;;;;19.43;76.61;100236.78;5010170;28;20602;-60
2023/09/14 04:34:26;;;;;;;5.30;4.80;;;;;;;19.43;77.24;100244.59;5008358;28;20210;-60
2023/09/14 04:36:54;;;;;;;5.50;5.00;;;;;;;19.42;77.39;100250.75;5008875;28;20227;-58
2023/09/14 04:39:22;;;;;;;7.80;4.72;;;;;;;19.40;77.37;100242.97;5009627;28;20298;-61
2023/09/14 04:41:50;;;;;;;8.70;5.82;;;;;;;19.40;77.27;100253.41;5014512;28;20215;-59
2023/09/14 04:44:18;;;;;;;6.40;4.80;;;;;;;19.38;77.27;100254.44;5012607;28;20215;-61
2023/09/14 04:46:46;;;;;;;4.95;4.55;;;;;;;19.38;77.36;100249.19;5014012;28;20250;-61
2023/09/14 04:49:15;;;;;;;5.57;5.07;;;;;;;19.34;77.53;100252.88;5013495;28;20199;-61
2023/09/14 04:51:47;;;;;;;5.07;4.35;;;;;;;19.33;77.35;100261.59;5016564;28;20693;-58
2023/09/14 04:54:15;;;;;;;4.78;4.32;;;;;;;19.29;77.62;100256.53;5011803;28;20235;-59
2023/09/14 04:56:43;;;;;;;5.90;4.63;;;;;;;19.35;77.87;100270.25;5013497;28;20792;-60
2023/09/14 04:59:11;;;;;;;6.53;4.32;;;;;;;19.38;77.21;100273.56;5008777;28;20211;-59
2023/09/14 05:01:39;;;;;;;5.10;4.60;;;;;;;19.37;76.88;100274.50;5009088;28;20235;-59
2023/09/14 05:04:07;;;;;;;4.35;3.90;;;;;;;19.39;76.83;100280.47;5012507;28;20207;-60
2023/09/14 05:06:35;;;;;;;5.57;4.50;;;;;;;19.39;76.64;100288.31;5011386;28;20310;-62
2023/09/14 05:09:04;;;;;;;7.15;4.07;;;;;;;19.36;76.57;100285.84;5012092;28;20707;-58
2023/09/14 05:11:32;;;;;;;5.03;3.83;;;;;;;19.29;76.80;100284.41;5006169;28;20207;-63
2023/09/14 05:14:00;;;;;;;5.45;3.83;;;;;;;19.23;77.08;100287.31;5013304;28;20269;-58
2023/09/14 05:16:28;;;;;;;4.28;3.72;;;;;;;19.22;77.60;100286.47;5010315;28;20214;-61
2023/09/14 05:18:56;;;;;;;5.40;3.85;;;;;;;19.24;76.89;100289.00;5013393;28;20693;-60
2023/09/14 05:21:24;;;;;;;4.72;3.90;;;;;;;19.21;76.91;100287.34;5010654;28;20236;-60
2023/09/14 05:23:52;;;;;;;4.50;3.78;;;;;;;19.13;76.85;100292.06;5012586;28;20257;-61
2023/09/14 05:26:21;;;;;;;4.65;4.00;;;;;;;19.10;77.41;100300.03;5010917;28;20227;-58
2023/09/14 05:28:49;;;;;;;5.72;3.50;;;;;;;19.07;77.33;100302.75;5011331;28;20265;-58
2023/09/14 05:31:17;;;;;;;3.83;3.47;;;;;;;19.07;77.40;100302.75;5013164;28;20207;-59
2023/09/14 05:33:45;;;;;;;3.65;3.35;;;;;;;19.07;77.29;100302.75;5012403;28;20576;-58
2023/09/14 05:36:13;;;;;;;4.97;3.35;;;;;;;19.03;77.64;100304.66;5017875;28;20201;-58
2023/09/14 05:38:41;;;;;;;4.93;3.25;;;;;;;19.02;77.41;100304.72;5012458;28;20685;-55
2023/09/14 05:41:10;;;;;;;3.42;3.00;;;;;;;18.99;77.49;100310.94;5011028;28;20214;-57
2023/09/14 05:43:39;;;;;;;3.63;3.05;;;;;;;19.01;77.72;100313.50;5014461;28;20217;-58
2023/09/14 05:46:07;;;;;;;4.75;3.55;;;;;;;19.00;77.25;100323.09;5013145;28;20214;-58
2023/09/14 05:48:35;;;;;;;4.60;2.97;;;;;;;18.97;77.41;100323.22;5014352;28;20218;-59
2023/09/14 05:51:03;;;;;;;4.50;2.90;;;;;;;18.97;77.51;100328.44;5010895;28;20631;-60
2023/09/14 05:53:31;;;;;;;4.25;3.30;;;;;;;18.95;77.42;100326.78;5008941;28;20640;-58
2023/09/14 05:55:59;;;;;;;5.75;2.85;;;;;;;18.94;77.38;100325.09;5012582;28;20203;-59
2023/09/14 05:58:27;;;;;;;4.53;3.20;;;;;;;18.98;77.19;100337.13;5013021;28;20572;-62
2023/09/14 06:00:57;;;;;;;3.28;2.42;;;;;;;18.92;77.14;100329.53;5011619;28;20231;-59
2023/09/14 06:03:25;;;;;;;3.33;2.95;;;;;;;18.93;77.32;100339.09;5006624;28;20269;-61
2023/09/14 06:05:53;;;;;;;5.03;2.72;;;;;;;18.93;77.20;100333.88;5006665;28;20227;-60
2023/09/14 06:08:23;;;;;;;6.63;2.95;;;;;;;18.99;77.28;100341.41;5005135;28;20220;-60
2023/09/14 06:10:51;;;;;;;2.53;2.33;;;;;;;19.03;76.71;100340.38;5011766;28;20334;-58
2023/09/14 06:13:20;;;;;;;4.78;2.67;;;;;;;19.09;76.53;100341.91;5007234;28;20746;-58
2023/09/14 06:15:48;;;;;;;4.53;2.72;;;;;;;19.15;76.26;100337.28;5007166;28;20199;-62
2023/09/14 06:18:18;;;;;;;2.70;2.28;;;;;;;19.26;75.67;100345.50;5010542;28;20200;-60
2023/09/14 06:20:46;;;;;;;4.55;2.58;;;;;;;19.37;74.99;100354.63;5010277;28;20574;-58
2023/09/14 06:23:14;;;;;;;5.28;2.33;;;;;;;19.47;74.01;100353.31;5008002;28;20204;-58
2023/09/14 06:25:42;;;;;;;3.22;2.47;;;;;;;19.42;73.70;100356.13;5010677;28;20626;-61
2023/09/14 06:28:11;;;;;;;2.63;2.13;;;;;;;19.44;74.33;100356.06;5011191;28;20746;-59
2023/09/14 06:30:39;;;;;;;5.80;2.40;;;;;;;19.50;73.85;100353.19;5011766;28;20215;-59
2023/09/14 06:33:07;;;;;;;3.03;1.98;;;;;;;19.57;73.30;100348.53;5012425;28;20585;-58
2023/09/14 06:35:36;;;;;;;3.05;2.28;;;;;;;19.56;72.84;100347.69;5009386;28;20526;-61
2023/09/14 06:38:04;;;;;;;6.93;2.30;;;;;;;19.56;72.75;100358.16;5011200;28;20298;-61
2023/09/14 06:40:32;;;;;;;3.85;2.58;;;;;;;19.61;73.22;100350.94;5011185;28;20211;-62
2023/09/14 06:43:00;;;;;;;5.93;2.22;;;;;;;19.71;72.52;100354.91;5012336;28;21177;-61
2023/09/14 06:45:28;;;;;;;3.80;2.22;;;;;;;19.99;72.06;100357.13;5014700;28;20211;-64
2023/09/14 06:47:56;;;;;;;4.10;2.25;;;;;;;20.08;70.59;100366.31;5011118;28;20974;-62
2023/09/14 06:50:24;;;;;;;5.00;1.95;;;;;;;20.28;71.12;100362.75;5011213;28;20697;-60
2023/09/14 06:52:54;;;;;;;2.90;2.03;;;;;;;20.75;69.97;100362.31;5004949;28;20207;-71
2023/09/14 06:55:22;;;;;;;4.78;2.05;;;;;;;20.80;66.39;100359.47;5002680;28;20203;-62
2023/09/14 06:57:50;;;;;;;1.85;1.75;;;;;;;20.70;66.45;100364.31;5008454;28;20203;-62
2023/09/14 07:00:21;;;;;;;5.22;2.30;;;;;;;20.57;67.81;100366.66;5008756;28;20246;-63
2023/09/14 07:02:50;;;;;;;2.70;2.00;;;;;;;20.44;68.07;100376.00;5010180;28;20211;-61
2023/09/14 07:05:19;;;;;;;3.15;2.30;;;;;;;20.38;68.13;100368.44;5011360;28;20662;-61
2023/09/14 07:07:47;;;;;;;2.55;2.17;;;;;;;20.30;67.67;100373.19;5010997;28;20215;-63
2023/09/14 07:10:16;;;;;;;4.00;2.10;;;;;;;20.24;68.19;100374.28;5012090;28;20355;-60
2023/09/14 07:12:44;;;;;;;4.97;2.00;;;;;;;20.32;68.54;100371.31;5007445;28;20203;-62
2023/09/14 07:15:12;;;;;;;2.42;1.80;;;;;;;20.48;68.30;100375.78;5004787;28;20211;-61
2023/09/14 07:17:41;;;;;;;2.58;2.00;;;;;;;20.54;67.57;100377.28;5011232;28;20290;-62
2023/09/14 07:20:09;;;;;;;2.97;1.63;;;;;;;20.55;67.70;100365.06;5001571;28;20298;-64
2023/09/14 07:22:38;;;;;;;3.60;1.83;;;;;;;20.72;66.76;100384.25;5004876;28;20733;-60
2023/09/14 07:25:08;;;;;;;6.15;2.00;;;;;;;20.83;66.95;100375.03;5008109;28;20191;-62
2023/09/14 07:27:38;;;;;;;1.95;1.70;;;;;;;20.96;65.65;100379.59;5010634;28;20223;-62
2023/09/14 07:30:07;;;;;;;3.10;1.65;;;;;;;21.13;65.24;100384.00;5010791;28;20204;-61
2023/09/14 07:32:35;;;;;;;4.22;2.00;;;;;;;21.20;64.24;100377.53;4992035;28;20211;-62
2023/09/14 07:35:04;;;;;;;2.45;1.85;;;;;;;21.62;65.75;100380.69;5008821;28;20670;-61
2023/09/14 07:37:31;;;;;;;2.33;1.65;;;;;;;23.63;61.07;100383.44;5009933;28;20214;-61
2023/09/14 07:39:59;;;;;;;2.08;1.73;;;;;;;24.74;56.30;100382.69;5010111;28;20203;-61
2023/09/14 07:42:28;;;;;;;3.03;1.70;;;;;;;25.75;50.90;100376.75;5007379;28;20261;-61
2023/09/14 07:44:57;;;;;;;1.58;1.48;;;;;;;27.84;46.83;100367.56;5000523;28;20206;-68
2023/09/14 07:47:29;;;;;;;3.00;1.27;;;;;;;28.33;43.09;100370.75;5010395;28;20870;-61
2023/09/14 07:49:58;;;;;;;3.67;1.50;;;;;;;27.70;44.18;100378.34;5011744;28;20717;-62
2023/09/14 07:52:27;;;;;;;2.60;1.48;;;;;;;27.13;43.14;100380.03;5006586;28;20301;-59
2023/09/14 07:54:55;;;;;;;1.63;1.27;;;;;;;26.58;45.99;100377.97;5010266;28;20215;-60
2023/09/14 07:57:23;;;;;;;2.33;1.38;;;;;;;28.01;44.04;100378.63;5006919;28;20206;-59
2023/09/14 07:59:52;;;;;;;2.00;1.05;;;;;;;29.01;41.42;100376.72;5009629;28;20205;-60
2023/09/14 08:02:22;;;;;;;1.35;1.00;;;;;;;28.83;39.49;100382.56;5008313;28;20712;-59
2023/09/14 08:04:50;;;;;;;1.58;0.80;;;;;;;27.41;41.00;100376.16;5010994;28;20199;-59
2023/09/14 08:07:18;;;;;;;1.38;0.90;;;;;;;25.92;44.75;100386.19;5008985;28;20325;-60
2023/09/14 08:09:46;;;;;;;2.17;0.80;;;;;;;24.97;47.10;100383.84;5010075;28;20225;-61
2023/09/14 08:12:14;;;;;;;1.60;1.05;;;;;;;25.10;49.54;100386.47;5006533;28;20730;-63
2023/09/14 08:14:42;;;;;;;1.00;0.77;;;;;;;24.75;47.85;100389.66;5009210;28;20199;-60
2023/09/14 08:17:11;;;;;;;3.22;1.10;;;;;;;24.07;49.08;100393.91;5010870;28;20222;-59
2023/09/14 08:19:41;;;;;;;1.02;0.77;;;;;;;23.42;51.42;100389.97;5009913;28;20203;-61
2023/09/14 08:22:09;;;;;;;1.20;0.82;;;;;;;23.04;53.21;100391.28;5012681;28;20709;-61
2023/09/14 08:24:38;;;;;;;2.88;1.13;;;;;;;23.59;53.85;100397.72;5008127;28;20704;-58
2023/09/14 08:27:11;;;;;;;1.73;1.10;;;;;;;24.23;51.21;100399.06;5011411;28;20692;-59
2023/09/14 08:29:39;;;;;;;2.05;0.95;;;;;;;24.26;49.40;100398.84;5011824;28;20207;-60
2023/09/14 08:32:07;;;;;;;1.40;0.50;;;;;;;23.81;49.93;100408.66;5011322;28;20573;-59
2023/09/14 08:34:35;;;;;;;1.85;0.68;;;;;;;24.01;52.34;100401.34;5013842;28;20246;-60
2023/09/14 08:37:07;;;;;;;1.33;0.80;;;;;;;24.74;49.65;100404.63;5012417;28;20214;-59
2023/09/14 08:39:35;;;;;;;0.68;0.60;;;;;;;25.41;47.34;100399.34;5014508;28;20218;-61
2023/09/14 08:42:03;;;;;;;0.70;0.70;;;;;;;25.15;46.25;100409.00;5014485;28;20207;-64
2023/09/14 08:44:34;;;;;;;0.70;0.70;;;;;;;24.49;47.44;100405.38;5013087;28;20316;-61
2023/09/14 08:47:03;;;;;;;3.05;0.60;;;;;;;23.97;49.23;100420.88;5007861;28;20207;-60
2023/09/14 08:49:34;;;;;;;0.70;0.60;;;;;;;24.04;49.41;100416.94;5011337;28;20199;-62
2023/09/14 08:52:07;;;;;;;0.50;0.50;;;;;;;24.06;49.17;100409.81;5001072;28;20650;-59
2023/09/14 08:54:35;;;;;;;1.08;0.95;;;;;;;23.85;47.35;100417.22;5013727;28;20223;-59
2023/09/14 08:57:06;;;;;;;0.88;0.50;;;;;;;23.36;48.71;100418.34;5013069;28;20676;-65
2023/09/14 08:59:36;;;;;;;0.50;0.50;;;;;;;23.37;49.63;100424.44;5013524;28;20220;-62
2023/09/14 09:02:08;;;;;;;1.10;0.50;;;;;;;23.37;48.47;100424.44;5013689;28;20214;-63
2023/09/14 09:04:36;;;;;;;2.13;0.60;;;;;;;23.35;48.90;100421.06;5009736;28;20226;-63
2023/09/14 09:07:07;;;;;;;1.52;0.60;;;;;;;23.31;49.05;100430.09;5009191;28;20219;-63
2023/09/14 09:09:36;;;;;;;0.50;0.40;;;;;;;23.10;50.07;100438.25;5013993;28;20222;-66
2023/09/14 09:12:04;;;;;;;1.20;0.80;;;;;;;22.67;50.98;100443.28;5012946;28;20200;-63
2023/09/14 09:14:33;;;;;;;1.70;0.50;;;;;;;22.41;51.87;100443.84;5013538;28;20295;-63
2023/09/14 09:17:00;;;;;;;0.80;0.68;;;;;;;22.13;52.31;100433.97;5014081;28;20199;-63
2023/09/14 09:19:28;;;;;;;0.98;0.75;;;;;;;22.15;53.20;100443.47;5011928;28;20207;-63
2023/09/14 09:21:57;;;;;;;1.58;0.60;;;;;;;22.60;52.50;100446.31;5011029;28;20713;-68
2023/09/14 09:24:31;;;;;;;2.20;0.80;;;;;;;23.19;51.09;100442.13;5008981;28;20211;-63
2023/09/14 09:26:59;;;;;;;1.23;0.80;;;;;;;23.68;49.16;100434.03;5011971;28;20217;-63
2023/09/14 09:29:27;;;;;;;1.95;0.77;;;;;;;23.85;48.22;100435.66;5007001;28;20220;-66
2023/09/14 09:31:55;;;;;;;0.60;0.60;;;;;;;23.63;48.10;100436.91;5011946;28;20215;-63
2023/09/14 09:34:25;;;;;;;0.90;0.90;;;;;;;23.42;48.75;100432.94;5012896;28;20203;-64
2023/09/14 09:36:57;;;;;;;1.13;0.60;;;;;;;23.29;49.34;100443.31;5016425;28;20643;-62
2023/09/14 09:39:26;;;;;;;2.15;0.60;;;;;;;23.23;49.44;100437.53;5012301;28;20204;-63
2023/09/14 09:41:56;;;;;;;2.30;0.60;;;;;;;23.10;50.19;100443.53;5007939;28;20566;-64
2023/09/14 09:44:27;;;;;;;2.80;0.88;;;;;;;23.02;50.68;100443.13;5013076;28;20208;-63
2023/09/14 09:46:57;;;;;;;0.90;0.90;;;;;;;22.78;51.46;100441.84;5014218;28;20207;-64
2023/09/14 09:49:29;;;;;;;1.23;0.90;;;;;;;22.53;52.37;100447.59;4999083;28;20697;-62
2023/09/14 09:51:58;;;;;;;1.90;1.00;;;;;;;22.30;53.41;100446.22;5012520;28;20658;-62
2023/09/14 09:54:27;;;;;;;1.60;0.90;;;;;;;22.19;54.04;100441.53;5011749;28;20210;-62
2023/09/14 09:56:57;;;;;;;2.25;0.80;;;;;;;22.19;54.36;100446.78;5012849;28;20211;-63
2023/09/14 09:59:29;;;;;;;1.15;0.80;;;;;;;22.22;54.29;100451.03;5007791;28;20711;-63
2023/09/14 10:01:57;;;;;;;2.85;0.90;;;;;;;22.17;53.84;100457.38;5004800;28;20294;-65
2023/09/14 10:04:28;;;;;;;1.58;0.95;;;;;;;22.13;54.09;100455.81;5012277;28;20717;-63
2023/09/14 10:06:59;;;;;;;0.90;0.90;;;;;;;22.12;54.14;100459.34;5017884;28;20219;-60
2023/09/14 10:09:34;;;;;;;1.77;1.08;;;;;;;22.14;54.24;100461.94;5011507;28;20266;-61
2023/09/14 10:12:05;;;;;;;4.10;1.20;;;;;;;22.13;54.55;100460.22;5012782;28;20738;-60
2023/09/14 10:14:35;;;;;;;0.70;0.70;;;;;;;22.03;55.12;100464.25;5011716;28;20261;-63
2023/09/14 10:17:08;;;;;;;1.38;1.10;;;;;;;21.94;55.34;100468.19;5009887;28;20645;-60
2023/09/14 10:19:39;;;;;;;5.57;1.50;;;;;;;21.93;55.62;100471.75;5012014;28;20577;-60
2023/09/14 10:22:09;;;;;;;1.00;0.90;;;;;;;21.96;55.53;100476.84;5011988;28;20246;-60
2023/09/14 10:24:38;;;;;;;0.80;0.77;;;;;;;21.88;54.99;100477.25;5011694;28;20208;-63
2023/09/14 10:27:08;;;;;;;2.20;0.93;;;;;;;21.77;55.37;100478.72;5002554;28;20203;-60
2023/09/14 10:29:39;;;;;;;1.52;0.85;;;;;;;21.73;55.05;100485.91;5012056;28;20219;-61
2023/09/14 10:32:10;;;;;;;3.22;0.80;;;;;;;21.66;55.42;100487.13;5006199;28;20270;-59
2023/09/14 10:34:39;;;;;;;3.20;0.80;;;;;;;21.60;55.44;100483.03;5003844;28;20211;-60
2023/09/14 10:37:25;;;;;;;1.48;0.95;;;;;;;21.53;56.06;100481.66;5010774;28;20669;-60
2023/09/14 10:39:55;;;;;;;2.92;0.90;;;;;;;21.50;56.67;100483.56;5011709;28;20230;-60
2023/09/14 10:42:24;;;;;;;2.10;0.80;;;;;;;21.45;56.81;100494.28;5012020;28;20218;-60
2023/09/14 10:44:52;;;;;;;1.05;0.90;;;;;;;21.45;57.01;100489.06;5012538;28;20210;-60
2023/09/14 10:47:24;;;;;;;2.45;1.02;;;;;;;21.90;56.94;100483.25;5011428;28;20239;-60
2023/09/14 10:49:53;;;;;;;1.15;0.95;;;;;;;22.52;54.68;100488.78;5005000;28;20218;-63
2023/09/14 10:52:25;;;;;;;1.10;0.73;;;;;;;22.90;53.63;100483.19;5012521;28;20202;-61
2023/09/14 10:54:54;;;;;;;1.85;0.80;;;;;;;23.09;52.68;100483.06;5012779;28;20657;-60
2023/09/14 10:57:25;;;;;;;1.88;1.10;;;;;;;23.10;51.97;100488.22;5012768;28;20199;-60
2023/09/14 10:59:54;;;;;;;1.63;0.70;;;;;;;23.03;51.82;100489.50;5010017;28;20214;-61
2023/09/14 11:02:56;;;;;;;4.43;0.95;;;;;;;22.86;52.23;100492.16;5017578;28;20560;-62
2023/09/14 11:05:46;;;;;;;3.42;0.82;;;;;;;22.66;52.74;100491.50;5000273;28;20606;-63
2023/09/14 11:08:16;;;;;;;3.95;0.82;;;;;;;22.52;53.55;100488.78;5011720;28;20285;-59
2023/09/14 11:10:55;;;;;;;1.75;0.90;;;;;;;22.48;53.72;100483.78;5011556;28;20207;-59
2023/09/14 11:13:32;;;;;;;3.63;0.70;;;;;;;22.63;53.39;100491.66;5007859;28;20745;-60
2023/09/14 11:16:12;;;;;;;1.42;0.80;;;;;;;22.70;53.11;100492.19;5011404;28;20569;-62
2023/09/14 11:18:53;;;;;;;1.58;0.50;;;;;;;22.69;52.71;100490.50;5010151;28;20262;-61
2023/09/14 11:21:44;;;;;;;0.93;0.70;;;;;;;22.63;51.92;100496.91;5008524;28;20246;-60
2023/09/14 11:24:15;;;;;;;1.08;0.52;;;;;;;22.57;52.13;100497.25;5013566;28;20681;-60
2023/09/14 11:26:49;;;;;;;2.03;0.60;;;;;;;22.62;52.35;100497.84;5010523;28;20724;-60
2023/09/14 11:29:26;;;;;;;0.68;0.68;;;;;;;22.66;51.60;100496.75;5011544;28;20223;-62
2023/09/14 11:31:57;;;;;;;2.45;1.00;;;;;;;22.71;52.05;100493.03;5001558;28;20292;-63